createdAt,value
2019-03-26T00:01:07.577Z,4.70
2019-03-26T00:03:36.106Z,4.17
2019-03-26T00:06:04.533Z,4.37
2019-03-26T00:08:32.916Z,4.40
2019-03-26T00:11:01.301Z,4.50
2019-03-26T00:13:32.559Z,3.90
2019-03-26T00:16:00.904Z,3.47
2019-03-26T00:18:29.294Z,4.17
2019-03-26T00:20:57.632Z,3.70
2019-03-26T00:23:25.972Z,4.13
2019-03-26T00:25:54.346Z,4.53
2019-03-26T00:28:22.707Z,5.03
2019-03-26T00:30:51.092Z,5.93
2019-03-26T00:33:19.471Z,5.30
2019-03-26T00:35:47.825Z,5.13
2019-03-26T00:38:16.178Z,4.93
2019-03-26T00:40:44.577Z,5.63
2019-03-26T00:43:12.931Z,5.53
2019-03-26T00:45:41.303Z,6.03
2019-03-26T00:48:09.680Z,4.73
2019-03-26T00:50:38.027Z,4.67
2019-03-26T00:53:06.364Z,4.57
2019-03-26T00:55:34.864Z,4.97
2019-03-26T00:58:08.213Z,4.77
2019-03-26T01:00:38.576Z,5.13
2019-03-26T01:03:06.944Z,5.00
2019-03-26T01:05:35.305Z,4.93
2019-03-26T01:08:03.678Z,4.83
2019-03-26T01:10:32.049Z,4.83
2019-03-26T01:13:00.500Z,4.63
2019-03-26T01:15:28.855Z,4.70
2019-03-26T01:17:57.313Z,4.33
2019-03-26T01:20:25.670Z,5.00
2019-03-26T01:22:54.041Z,4.10
2019-03-26T01:25:22.400Z,3.43
2019-03-26T01:27:50.775Z,3.40
2019-03-26T01:30:19.447Z,3.30
2019-03-26T01:32:47.866Z,3.13
2019-03-26T01:35:16.218Z,3.80
2019-03-26T01:37:59.492Z,4.03
2019-03-26T01:40:27.875Z,3.87
2019-03-26T01:42:56.312Z,3.57
2019-03-26T01:45:24.667Z,3.67
2019-03-26T01:47:53.034Z,3.73
2019-03-26T01:50:21.387Z,3.93
2019-03-26T01:52:49.774Z,3.53
2019-03-26T01:55:18.156Z,3.63
2019-03-26T01:57:46.525Z,3.30
2019-03-26T02:00:15.126Z,3.47
2019-03-26T02:02:43.477Z,3.30
2019-03-26T02:05:11.909Z,3.43
2019-03-26T02:07:40.264Z,3.07
2019-03-26T02:10:08.700Z,2.93
2019-03-26T02:12:37.098Z,3.13
2019-03-26T02:15:07.807Z,3.10
2019-03-26T02:17:36.186Z,3.17
2019-03-26T02:20:06.399Z,3.20
2019-03-26T02:22:34.754Z,2.83
2019-03-26T02:25:03.199Z,3.17
2019-03-26T02:27:31.541Z,2.20
2019-03-26T02:29:59.904Z,2.50
2019-03-26T02:32:28.249Z,2.33
2019-03-26T02:34:56.773Z,2.63
2019-03-26T02:37:25.110Z,2.20
2019-03-26T02:39:53.478Z,2.27
2019-03-26T02:42:22.122Z,2.20
2019-03-26T02:44:50.457Z,2.43
2019-03-26T02:47:18.769Z,2.47
2019-03-26T02:49:47.127Z,1.87
2019-03-26T02:52:15.547Z,2.40
2019-03-26T02:54:43.848Z,2.90
2019-03-26T02:57:12.200Z,2.53
2019-03-26T02:59:40.591Z,2.83
2019-03-26T03:02:08.957Z,3.00
2019-03-26T03:04:37.353Z,2.90
2019-03-26T03:07:05.817Z,2.97
2019-03-26T03:09:34.149Z,2.90
2019-03-26T03:12:02.595Z,2.40
2019-03-26T03:14:31.608Z,2.70
2019-03-26T03:17:00.025Z,2.93
2019-03-26T03:19:28.324Z,2.90
2019-03-26T03:21:56.677Z,2.90
2019-03-26T03:24:25.035Z,3.23
2019-03-26T03:26:53.392Z,2.83
2019-03-26T03:29:21.761Z,2.97
2019-03-26T03:31:50.195Z,3.30
2019-03-26T03:34:18.562Z,3.00
2019-03-26T03:36:46.913Z,3.27
2019-03-26T03:39:15.301Z,3.00
2019-03-26T03:41:43.651Z,3.23
2019-03-26T03:44:12.007Z,3.57
2019-03-26T03:46:41.358Z,3.40
2019-03-26T03:49:09.707Z,3.60
2019-03-26T03:51:39.739Z,3.40
2019-03-26T03:54:08.277Z,3.87
2019-03-26T03:56:38.305Z,3.80
2019-03-26T03:59:27.701Z,3.80
2019-03-26T04:01:56.110Z,4.00
2019-03-26T04:04:24.537Z,4.27
2019-03-26T04:06:52.933Z,4.27
2019-03-26T04:09:21.303Z,3.83
2019-03-26T04:11:49.677Z,4.27
2019-03-26T04:14:18.081Z,3.97
2019-03-26T04:16:46.425Z,3.67
2019-03-26T04:19:14.940Z,4.10
2019-03-26T04:21:43.303Z,3.90
2019-03-26T04:24:11.643Z,3.97
2019-03-26T04:26:39.992Z,3.80
2019-03-26T04:29:08.379Z,3.77
2019-03-26T04:31:36.768Z,3.87
2019-03-26T04:34:05.138Z,3.33
2019-03-26T04:36:33.512Z,3.33
2019-03-26T04:39:01.886Z,3.60
2019-03-26T04:41:30.250Z,3.73
2019-03-26T04:43:58.606Z,3.53
2019-03-26T04:46:26.974Z,3.17
2019-03-26T04:48:55.317Z,3.77
2019-03-26T04:51:23.672Z,3.27
2019-03-26T04:53:52.325Z,3.40
2019-03-26T04:56:20.656Z,3.30
2019-03-26T04:58:49.011Z,3.83
2019-03-26T05:01:17.636Z,3.50
2019-03-26T05:03:45.990Z,3.70
2019-03-26T05:06:14.350Z,3.30
2019-03-26T05:08:42.719Z,3.47
2019-03-26T05:11:11.118Z,3.53
2019-03-26T05:13:39.487Z,3.10
2019-03-26T05:16:08.193Z,3.60
2019-03-26T05:18:36.561Z,3.50
2019-03-26T05:21:04.919Z,3.67
2019-03-26T05:23:33.275Z,3.30
2019-03-26T05:26:01.641Z,3.53
2019-03-26T05:28:29.996Z,3.60
2019-03-26T05:30:58.375Z,3.60
2019-03-26T05:33:26.750Z,3.20
2019-03-26T05:35:55.092Z,3.53
2019-03-26T05:38:23.438Z,3.30
2019-03-26T05:40:51.804Z,3.30
2019-03-26T05:43:20.186Z,3.40
2019-03-26T05:45:48.560Z,3.57
2019-03-26T05:48:17.171Z,3.80
2019-03-26T05:50:45.534Z,3.80
2019-03-26T05:53:13.908Z,3.60
2019-03-26T05:55:42.271Z,3.67
2019-03-26T05:58:10.671Z,3.50
2019-03-26T06:00:39.033Z,3.90
2019-03-26T06:03:07.403Z,3.90
2019-03-26T06:05:35.792Z,3.90
2019-03-26T06:08:04.172Z,3.70
2019-03-26T06:10:32.541Z,3.80
2019-03-26T06:13:01.217Z,4.00
2019-03-26T06:15:29.573Z,3.37
2019-03-26T06:17:57.908Z,3.67
2019-03-26T06:20:26.290Z,3.43
2019-03-26T06:22:54.659Z,3.30
2019-03-26T06:25:23.027Z,3.70
2019-03-26T06:27:51.395Z,3.47
2019-03-26T06:30:19.776Z,3.63
2019-03-26T06:32:48.158Z,4.00
2019-03-26T06:35:16.516Z,3.90
2019-03-26T06:37:44.890Z,4.43
2019-03-26T06:40:13.890Z,3.90
2019-03-26T06:42:42.280Z,3.63
2019-03-26T06:45:11.494Z,3.93
2019-03-26T06:47:39.864Z,4.27
2019-03-26T06:50:09.580Z,4.47
2019-03-26T06:52:38.034Z,4.30
2019-03-26T06:55:09.383Z,5.03
2019-03-26T06:57:38.085Z,4.67
2019-03-26T07:00:13.366Z,4.30
2019-03-26T07:02:41.878Z,4.50
2019-03-26T07:05:10.616Z,4.60
2019-03-26T07:07:38.975Z,5.27
2019-03-26T07:10:08.688Z,5.67
2019-03-26T07:12:37.137Z,4.83
2019-03-26T07:15:09.356Z,4.70
2019-03-26T07:17:37.764Z,4.53
2019-03-26T07:20:08.373Z,4.43
2019-03-26T07:22:36.718Z,5.17
2019-03-26T07:25:08.496Z,5.27
2019-03-26T07:27:37.107Z,4.60
2019-03-26T07:30:07.307Z,5.00
2019-03-26T07:32:36.019Z,4.70
2019-03-26T07:35:06.517Z,4.93
2019-03-26T07:37:44.994Z,4.67
2019-03-26T07:40:06.236Z,4.53
2019-03-26T07:42:34.985Z,4.77
2019-03-26T07:45:04.490Z,4.67
2019-03-26T07:47:32.883Z,4.20
2019-03-26T07:50:01.254Z,4.20
2019-03-26T07:52:29.612Z,4.63
2019-03-26T07:54:57.991Z,4.20
2019-03-26T07:57:26.368Z,4.40
2019-03-26T07:59:54.730Z,4.60
2019-03-26T08:02:23.108Z,4.70
2019-03-26T08:04:51.510Z,4.37
2019-03-26T08:07:19.897Z,4.30
2019-03-26T08:09:48.279Z,5.07
2019-03-26T08:12:16.649Z,4.90
2019-03-26T08:14:45.075Z,5.23
2019-03-26T08:17:13.420Z,4.53
2019-03-26T08:19:42.113Z,5.00
2019-03-26T08:22:10.458Z,5.10
2019-03-26T08:24:38.794Z,5.07
2019-03-26T08:27:07.211Z,4.67
2019-03-26T08:29:35.551Z,5.27
2019-03-26T08:32:03.995Z,5.03
2019-03-26T08:34:32.379Z,4.97
2019-03-26T08:37:00.736Z,5.07
2019-03-26T08:39:29.107Z,5.80
2019-03-26T08:41:57.494Z,5.07
2019-03-26T08:44:26.233Z,5.10
2019-03-26T08:46:54.628Z,4.80
2019-03-26T08:49:23.002Z,5.30
2019-03-26T08:51:51.368Z,4.90
2019-03-26T08:54:19.723Z,5.10
2019-03-26T08:56:48.101Z,5.37
2019-03-26T08:59:16.470Z,5.27
2019-03-26T09:01:44.832Z,5.07
2019-03-26T09:04:13.203Z,4.57
2019-03-26T09:06:41.578Z,5.03
2019-03-26T09:09:10.068Z,5.77
2019-03-26T09:11:38.444Z,5.00
2019-03-26T09:14:06.894Z,5.73
2019-03-26T09:16:35.257Z,5.73
2019-03-26T09:19:03.768Z,4.97
2019-03-26T09:21:32.751Z,5.10
2019-03-26T09:24:01.156Z,5.40
2019-03-26T09:26:29.533Z,4.97
2019-03-26T09:28:57.908Z,5.33
2019-03-26T09:31:26.267Z,4.83
2019-03-26T09:33:54.624Z,5.00
2019-03-26T09:36:23.000Z,4.50
2019-03-26T09:38:56.553Z,4.70
2019-03-26T09:41:25.149Z,4.67
2019-03-26T09:43:53.552Z,4.13
2019-03-26T09:46:21.977Z,4.20
2019-03-26T09:48:50.357Z,4.00
2019-03-26T09:51:18.731Z,4.20
2019-03-26T09:53:47.111Z,4.17
2019-03-26T09:56:27.754Z,3.50
2019-03-26T09:58:45.556Z,3.50
2019-03-26T10:01:14.611Z,3.97
2019-03-26T10:03:42.970Z,3.60
2019-03-26T10:06:22.783Z,3.93
2019-03-26T10:08:51.749Z,4.23
2019-03-26T10:11:11.572Z,3.40
2019-03-26T10:13:39.949Z,3.60
2019-03-26T10:16:08.326Z,3.43
2019-03-26T10:18:36.695Z,3.43
2019-03-26T10:21:05.072Z,3.40
2019-03-26T10:23:33.439Z,3.60
2019-03-26T10:26:01.830Z,3.90
2019-03-26T10:28:30.181Z,3.10
2019-03-26T10:30:58.528Z,3.53
2019-03-26T10:33:26.907Z,3.30
2019-03-26T10:35:55.282Z,3.30
2019-03-26T10:38:23.658Z,3.60
2019-03-26T10:40:52.035Z,3.00
2019-03-26T10:43:20.493Z,3.10
2019-03-26T10:45:48.849Z,3.30
2019-03-26T10:48:17.220Z,3.00
2019-03-26T10:50:45.587Z,3.13
2019-03-26T10:53:13.964Z,3.30
2019-03-26T10:55:42.323Z,3.30
2019-03-26T10:58:10.689Z,3.20
2019-03-26T11:00:39.651Z,3.23
2019-03-26T11:03:08.031Z,2.87
2019-03-26T11:05:36.450Z,2.87
2019-03-26T11:08:09.719Z,3.20
2019-03-26T11:10:38.117Z,3.37
2019-03-26T11:13:06.575Z,3.37
2019-03-26T11:15:35.280Z,3.47
2019-03-26T11:18:03.685Z,3.10
2019-03-26T11:20:32.059Z,3.07
2019-03-26T11:23:00.502Z,3.30
2019-03-26T11:25:28.889Z,2.67
2019-03-26T11:27:57.265Z,2.87
2019-03-26T11:30:25.661Z,3.10
2019-03-26T11:32:53.999Z,2.70
2019-03-26T11:35:22.342Z,2.83
2019-03-26T11:37:50.712Z,2.67
2019-03-26T11:40:19.089Z,2.70
2019-03-26T11:42:47.453Z,3.00
2019-03-26T11:45:15.884Z,2.80
2019-03-26T11:47:44.322Z,3.40
2019-03-26T11:50:13.229Z,2.90
2019-03-26T11:52:41.660Z,2.83
2019-03-26T11:55:10.710Z,3.00
2019-03-26T11:57:39.153Z,3.10
2019-03-26T12:00:13.846Z,2.70
2019-03-26T12:02:42.218Z,3.13
2019-03-26T12:05:10.724Z,2.67
2019-03-26T12:07:39.121Z,2.60
2019-03-26T12:10:08.216Z,2.87
2019-03-26T12:12:36.582Z,2.90
2019-03-26T12:15:07.172Z,2.70
2019-03-26T12:17:35.551Z,2.60
2019-03-26T12:20:08.648Z,2.83
2019-03-26T12:22:37.034Z,2.60
2019-03-26T12:25:07.337Z,2.73
2019-03-26T12:27:36.629Z,3.00
2019-03-26T12:30:09.398Z,2.73
2019-03-26T12:32:40.679Z,2.87
2019-03-26T12:35:09.758Z,2.60
2019-03-26T12:37:38.142Z,2.70
2019-03-26T12:40:09.731Z,2.57
2019-03-26T12:42:38.106Z,2.57
2019-03-26T12:45:07.489Z,3.07
2019-03-26T12:47:36.245Z,2.40
2019-03-26T12:50:07.210Z,2.60
2019-03-26T12:52:35.599Z,2.80
2019-03-26T12:55:05.215Z,2.43
2019-03-26T12:57:33.574Z,2.80
2019-03-26T13:00:02.086Z,3.00
2019-03-26T13:02:30.562Z,2.90
2019-03-26T13:04:59.064Z,2.87
2019-03-26T13:07:27.558Z,2.70
2019-03-26T13:09:56.161Z,3.20
2019-03-26T13:12:24.664Z,3.00
2019-03-26T13:14:53.159Z,2.70
2019-03-26T13:17:22.332Z,2.53
2019-03-26T13:19:50.829Z,2.60
2019-03-26T13:22:19.345Z,3.10
2019-03-26T13:24:47.838Z,2.57
2019-03-26T13:27:16.315Z,3.00
2019-03-26T13:29:44.834Z,2.70
2019-03-26T13:32:13.374Z,2.70
2019-03-26T13:34:41.803Z,2.80
2019-03-26T13:37:10.486Z,2.70
2019-03-26T13:39:38.972Z,2.97
2019-03-26T13:42:07.696Z,3.10
2019-03-26T13:44:36.200Z,3.03
2019-03-26T13:47:04.751Z,3.00
2019-03-26T13:49:33.330Z,2.80
2019-03-26T13:52:01.853Z,2.73
2019-03-26T13:54:30.327Z,3.10
2019-03-26T13:56:58.828Z,3.07
2019-03-26T13:59:27.332Z,3.50
2019-03-26T14:01:55.843Z,3.30
2019-03-26T14:04:24.404Z,2.87
2019-03-26T14:06:52.876Z,3.20
2019-03-26T14:09:21.431Z,2.60
2019-03-26T14:11:49.924Z,2.97
2019-03-26T14:14:18.422Z,2.70
2019-03-26T14:16:46.939Z,2.80
2019-03-26T14:19:15.852Z,2.70
2019-03-26T14:21:44.385Z,2.80
2019-03-26T14:24:13.521Z,2.50
2019-03-26T14:26:42.296Z,2.60
2019-03-26T14:29:10.862Z,2.60
2019-03-26T14:31:39.350Z,2.70
2019-03-26T14:34:08.232Z,2.77
2019-03-26T14:36:36.709Z,2.97
2019-03-26T14:39:08.244Z,2.80
2019-03-26T14:41:36.897Z,3.13
2019-03-26T14:44:05.453Z,3.20
2019-03-26T14:46:34.152Z,2.77
2019-03-26T14:49:02.701Z,2.63
2019-03-26T14:51:31.270Z,3.10
2019-03-26T14:53:59.852Z,2.77
2019-03-26T14:56:28.645Z,2.67
2019-03-26T14:58:57.235Z,2.60
2019-03-26T15:01:25.695Z,2.77
2019-03-26T15:03:54.375Z,3.00
2019-03-26T15:06:22.963Z,2.90
2019-03-26T15:08:51.544Z,2.73
2019-03-26T15:11:20.062Z,2.83
2019-03-26T15:13:49.597Z,2.67
2019-03-26T15:16:18.398Z,2.67
2019-03-26T15:18:46.982Z,2.83
2019-03-26T15:21:15.575Z,2.50
2019-03-26T15:23:44.065Z,2.70
2019-03-26T15:26:12.572Z,2.30
2019-03-26T15:28:46.222Z,2.50
2019-03-26T15:31:14.732Z,2.60
2019-03-26T15:33:43.211Z,2.70
2019-03-26T15:36:11.731Z,2.57
2019-03-26T15:38:40.322Z,2.70
2019-03-26T15:41:21.002Z,2.97
2019-03-26T15:43:39.000Z,2.80
2019-03-26T15:46:07.509Z,2.70
2019-03-26T15:48:35.990Z,2.70
2019-03-26T15:51:04.797Z,2.30
2019-03-26T15:53:33.356Z,2.90
2019-03-26T15:56:01.958Z,2.93
2019-03-26T15:58:30.426Z,2.53
2019-03-26T16:00:58.940Z,2.80
2019-03-26T16:03:27.435Z,2.40
2019-03-26T16:05:55.944Z,2.40
2019-03-26T16:08:24.441Z,2.70
2019-03-26T16:10:52.960Z,2.80
2019-03-26T16:13:21.435Z,3.50
2019-03-26T16:15:51.858Z,2.67
2019-03-26T16:18:20.189Z,3.03
2019-03-26T16:20:48.707Z,3.10
2019-03-26T16:23:17.217Z,3.60
2019-03-26T16:25:45.900Z,3.00
2019-03-26T16:28:14.388Z,2.90
2019-03-26T16:30:42.865Z,2.90
2019-03-26T16:33:11.435Z,3.50
2019-03-26T16:35:40.495Z,3.70
2019-03-26T16:38:09.017Z,3.80
2019-03-26T16:40:37.593Z,3.73
2019-03-26T16:43:06.178Z,3.27
2019-03-26T16:45:34.766Z,3.20
2019-03-26T16:48:03.266Z,3.37
2019-03-26T16:50:32.116Z,3.30
2019-03-26T16:53:00.652Z,3.47
2019-03-26T16:55:29.147Z,3.33
2019-03-26T16:57:57.644Z,3.43
2019-03-26T17:00:33.306Z,3.90
2019-03-26T17:03:02.137Z,3.20
2019-03-26T17:05:30.646Z,2.97
2019-03-26T17:07:59.278Z,2.73
2019-03-26T17:10:27.787Z,3.53
2019-03-26T17:12:57.196Z,3.63
2019-03-26T17:15:25.675Z,3.30
2019-03-26T17:17:54.235Z,2.73
2019-03-26T17:20:24.103Z,2.60
2019-03-26T17:22:52.732Z,2.53
2019-03-26T17:25:21.230Z,2.83
2019-03-26T17:27:50.007Z,2.90
2019-03-26T17:30:18.638Z,3.17
2019-03-26T17:32:47.287Z,2.80
2019-03-26T17:35:15.870Z,2.93
2019-03-26T17:37:44.443Z,2.80
2019-03-26T17:40:13.660Z,2.80
2019-03-26T17:42:42.152Z,2.60
2019-03-26T17:45:10.777Z,2.83
2019-03-26T17:47:39.257Z,2.90
2019-03-26T17:50:08.626Z,3.43
2019-03-26T17:52:37.271Z,3.40
2019-03-26T17:55:07.944Z,3.27
2019-03-26T17:57:36.443Z,3.37
2019-03-26T18:00:07.992Z,3.40
2019-03-26T18:02:36.473Z,3.10
2019-03-26T18:05:10.523Z,3.00
2019-03-26T18:07:39.020Z,2.93
2019-03-26T18:10:07.643Z,2.93
2019-03-26T18:12:36.158Z,3.10
2019-03-26T18:15:06.011Z,3.27
2019-03-26T18:17:34.531Z,3.57
2019-03-26T18:20:03.105Z,3.40
2019-03-26T18:22:31.620Z,3.10
2019-03-26T18:25:00.353Z,3.57
2019-03-26T18:27:28.912Z,3.27
2019-03-26T18:29:57.398Z,3.47
2019-03-26T18:32:25.892Z,3.20
2019-03-26T18:34:54.394Z,3.10
2019-03-26T18:37:22.906Z,3.37
2019-03-26T18:39:51.408Z,3.70
2019-03-26T18:42:20.057Z,3.37
2019-03-26T18:44:48.573Z,3.30
2019-03-26T18:47:17.422Z,3.63
2019-03-26T18:49:45.901Z,3.00
2019-03-26T18:52:14.401Z,2.87
2019-03-26T18:54:43.050Z,2.80
2019-03-26T18:57:11.530Z,2.90
2019-03-26T18:59:40.062Z,3.23
2019-03-26T19:02:08.578Z,2.80
2019-03-26T19:04:37.031Z,7.17
2019-03-26T19:07:05.540Z,3.30
2019-03-26T19:09:34.042Z,4.53
2019-03-26T19:12:02.549Z,2.80
2019-03-26T19:14:31.059Z,3.00
2019-03-26T19:16:59.565Z,4.33
2019-03-26T19:19:28.066Z,5.90
2019-03-26T19:21:56.652Z,9.80
2019-03-26T19:24:25.221Z,7.20
2019-03-26T19:26:53.727Z,7.47
2019-03-26T19:29:22.231Z,6.17
2019-03-26T19:31:50.911Z,3.73
2019-03-26T19:34:19.418Z,5.87
2019-03-26T19:36:47.931Z,4.87
2019-03-26T19:39:16.404Z,4.87
2019-03-26T19:41:45.015Z,3.50
2019-03-26T19:44:13.492Z,3.97
2019-03-26T19:46:41.991Z,2.80
2019-03-26T19:49:10.513Z,3.83
2019-03-26T19:51:39.000Z,5.40
2019-03-26T19:54:07.760Z,5.20
2019-03-26T19:56:36.302Z,4.27
2019-03-26T19:59:04.839Z,4.87
2019-03-26T20:01:33.369Z,4.47
2019-03-26T20:04:01.866Z,4.83
2019-03-26T20:06:30.349Z,4.87
2019-03-26T20:08:58.841Z,5.20
2019-03-26T20:11:27.359Z,5.30
2019-03-26T20:13:55.938Z,5.47
2019-03-26T20:16:27.194Z,4.10
2019-03-26T20:18:54.730Z,4.73
2019-03-26T20:21:23.291Z,4.30
2019-03-26T20:23:51.807Z,4.40
2019-03-26T20:26:20.575Z,4.20
2019-03-26T20:28:49.177Z,4.23
2019-03-26T20:31:17.750Z,3.73
2019-03-26T20:33:46.312Z,4.03
2019-03-26T20:36:14.808Z,4.07
2019-03-26T20:38:43.476Z,4.47
2019-03-26T20:41:12.049Z,3.90
2019-03-26T20:43:40.541Z,3.67
2019-03-26T20:46:09.036Z,3.80
2019-03-26T20:48:37.570Z,4.17
2019-03-26T20:51:06.234Z,3.73
2019-03-26T20:53:34.826Z,3.70
2019-03-26T20:56:03.472Z,3.57
2019-03-26T20:58:32.128Z,3.50
2019-03-26T21:01:00.702Z,3.70
2019-03-26T21:03:29.211Z,3.37
2019-03-26T21:05:57.721Z,3.90
2019-03-26T21:08:41.517Z,3.57
2019-03-26T21:11:10.039Z,3.50
2019-03-26T21:13:50.205Z,3.67
2019-03-26T21:16:08.738Z,3.77
2019-03-26T21:18:37.245Z,3.43
2019-03-26T21:21:05.748Z,3.90
2019-03-26T21:23:34.255Z,4.10
2019-03-26T21:26:02.818Z,3.60
2019-03-26T21:28:31.314Z,3.67
2019-03-26T21:30:59.817Z,3.60
2019-03-26T21:33:28.315Z,3.80
2019-03-26T21:35:56.819Z,3.70
2019-03-26T21:38:25.316Z,3.73
2019-03-26T21:40:54.078Z,3.50
2019-03-26T21:43:22.599Z,3.40
2019-03-26T21:45:51.125Z,3.17
2019-03-26T21:48:19.663Z,3.13
2019-03-26T21:50:48.243Z,3.33
2019-03-26T21:53:16.742Z,3.63
2019-03-26T21:55:45.260Z,3.57
2019-03-26T21:58:13.760Z,3.27
2019-03-26T22:00:44.331Z,3.33
2019-03-26T22:03:12.726Z,2.90
2019-03-26T22:05:41.217Z,3.50
2019-03-26T22:08:09.701Z,3.20
2019-03-26T22:10:38.189Z,3.30
2019-03-26T22:13:06.675Z,3.20
2019-03-26T22:15:35.184Z,3.57
2019-03-26T22:18:03.672Z,3.40
2019-03-26T22:20:32.235Z,3.00
2019-03-26T22:23:00.800Z,3.27
2019-03-26T22:25:29.474Z,3.57
2019-03-26T22:27:58.050Z,3.80
2019-03-26T22:30:26.621Z,4.30
2019-03-26T22:32:55.127Z,3.07
2019-03-26T22:35:23.603Z,3.30
2019-03-26T22:37:52.102Z,3.33
2019-03-26T22:40:20.996Z,3.00
2019-03-26T22:42:49.481Z,3.33
2019-03-26T22:45:18.023Z,3.60
2019-03-26T22:47:46.538Z,3.97
2019-03-26T22:50:15.451Z,3.50
2019-03-26T22:52:43.945Z,3.40
2019-03-26T22:55:12.602Z,3.90
2019-03-26T22:57:41.092Z,4.07
2019-03-26T23:00:12.644Z,3.07
2019-03-26T23:02:41.209Z,3.47
2019-03-26T23:05:10.721Z,4.40
2019-03-26T23:07:39.257Z,3.13
2019-03-26T23:10:08.693Z,3.50
2019-03-26T23:12:37.371Z,3.30
2019-03-26T23:15:20.590Z,3.20
2019-03-26T23:17:49.223Z,2.90
2019-03-26T23:20:17.784Z,3.40
2019-03-26T23:22:46.338Z,3.27
2019-03-26T23:25:15.576Z,3.20
2019-03-26T23:27:44.150Z,3.20
2019-03-26T23:30:13.445Z,3.20
2019-03-26T23:32:41.959Z,3.17
2019-03-26T23:35:10.795Z,3.53
2019-03-26T23:37:39.279Z,3.43
2019-03-26T23:40:08.005Z,3.07
2019-03-26T23:42:36.492Z,3.63
2019-03-26T23:45:07.525Z,3.63
2019-03-26T23:47:36.028Z,4.30
2019-03-26T23:50:06.762Z,3.93
2019-03-26T23:52:35.249Z,3.33
2019-03-26T23:55:04.696Z,3.60
2019-03-26T23:57:33.176Z,3.73
